sensor_id;sensor_type;location;lat;lon;timestamp;P1;durP1;ratioP1;P2;durP2;ratioP2
15679;SDS011;15488;48.114;11.532;2022-08-30T00:00:48;9.40;;;8.00;;
15679;SDS011;15488;48.114;11.532;2022-08-30T00:03:27;8.80;;;7.83;;
15679;SDS011;15488;48.114;11.532;2022-08-30T00:05:55;9.10;;;8.20;;
15679;SDS011;15488;48.114;11.532;2022-08-30T00:08:23;9.03;;;8.07;;
15679;SDS011;15488;48.114;11.532;2022-08-30T00:10:50;10.03;;;8.20;;
15679;SDS011;15488;48.114;11.532;2022-08-30T00:13:20;9.33;;;8.20;;
15679;SDS011;15488;48.114;11.532;2022-08-30T00:15:48;9.27;;;8.37;;
15679;SDS011;15488;48.114;11.532;2022-08-30T00:18:16;9.17;;;7.97;;
15679;SDS011;15488;48.114;11.532;2022-08-30T00:20:45;9.10;;;8.20;;
15679;SDS011;15488;48.114;11.532;2022-08-30T00:23:14;9.03;;;8.13;;
15679;SDS011;15488;48.114;11.532;2022-08-30T00:25:43;8.97;;;8.10;;
15679;SDS011;15488;48.114;11.532;2022-08-30T00:28:11;8.87;;;7.97;;
15679;SDS011;15488;48.114;11.532;2022-08-30T00:30:41;9.33;;;8.23;;
15679;SDS011;15488;48.114;11.532;2022-08-30T00:33:09;9.40;;;7.87;;
15679;SDS011;15488;48.114;11.532;2022-08-30T00:35:37;8.90;;;8.00;;
15679;SDS011;15488;48.114;11.532;2022-08-30T00:38:05;8.53;;;7.73;;
15679;SDS011;15488;48.114;11.532;2022-08-30T00:40:33;9.47;;;8.50;;
15679;SDS011;15488;48.114;11.532;2022-08-30T00:43:03;8.90;;;8.00;;
15679;SDS011;15488;48.114;11.532;2022-08-30T00:45:33;9.00;;;8.10;;
15679;SDS011;15488;48.114;11.532;2022-08-30T00:48:05;8.83;;;7.93;;
15679;SDS011;15488;48.114;11.532;2022-08-30T00:50:35;8.93;;;8.03;;
15679;SDS011;15488;48.114;11.532;2022-08-30T00:53:05;8.80;;;7.90;;
15679;SDS011;15488;48.114;11.532;2022-08-30T00:55:34;9.17;;;8.17;;
15679;SDS011;15488;48.114;11.532;2022-08-30T00:58:02;9.60;;;8.13;;
15679;SDS011;15488;48.114;11.532;2022-08-30T01:00:33;9.57;;;8.13;;
15679;SDS011;15488;48.114;11.532;2022-08-30T01:03:02;8.80;;;7.90;;
15679;SDS011;15488;48.114;11.532;2022-08-30T01:05:33;8.40;;;7.50;;
15679;SDS011;15488;48.114;11.532;2022-08-30T01:08:02;8.03;;;7.23;;
15679;SDS011;15488;48.114;11.532;2022-08-30T01:10:30;8.63;;;7.73;;
15679;SDS011;15488;48.114;11.532;2022-08-30T01:13:00;8.90;;;8.00;;
15679;SDS011;15488;48.114;11.532;2022-08-30T01:15:28;9.43;;;8.03;;
15679;SDS011;15488;48.114;11.532;2022-08-30T01:17:57;8.30;;;7.40;;
15679;SDS011;15488;48.114;11.532;2022-08-30T01:20:28;9.33;;;7.50;;
15679;SDS011;15488;48.114;11.532;2022-08-30T01:23:06;9.63;;;7.80;;
15679;SDS011;15488;48.114;11.532;2022-08-30T01:25:38;10.93;;;7.83;;
15679;SDS011;15488;48.114;11.532;2022-08-30T01:28:08;8.57;;;7.67;;
15679;SDS011;15488;48.114;11.532;2022-08-30T01:30:46;8.20;;;7.40;;
15679;SDS011;15488;48.114;11.532;2022-08-30T01:33:13;8.37;;;7.47;;
15679;SDS011;15488;48.114;11.532;2022-08-30T01:35:45;8.60;;;7.70;;
15679;SDS011;15488;48.114;11.532;2022-08-30T01:38:18;9.37;;;7.90;;
15679;SDS011;15488;48.114;11.532;2022-08-30T01:40:47;9.77;;;8.23;;
15679;SDS011;15488;48.114;11.532;2022-08-30T01:43:15;9.37;;;7.77;;
15679;SDS011;15488;48.114;11.532;2022-08-30T01:45:44;9.40;;;7.70;;
15679;SDS011;15488;48.114;11.532;2022-08-30T01:48:11;8.53;;;7.63;;
15679;SDS011;15488;48.114;11.532;2022-08-30T01:50:39;8.10;;;7.30;;
15679;SDS011;15488;48.114;11.532;2022-08-30T01:53:07;8.20;;;7.40;;
15679;SDS011;15488;48.114;11.532;2022-08-30T01:55:36;8.13;;;7.10;;
15679;SDS011;15488;48.114;11.532;2022-08-30T01:58:04;8.60;;;7.63;;
15679;SDS011;15488;48.114;11.532;2022-08-30T02:00:31;8.37;;;7.57;;
15679;SDS011;15488;48.114;11.532;2022-08-30T02:02:59;8.83;;;7.83;;
15679;SDS011;15488;48.114;11.532;2022-08-30T02:05:26;8.50;;;7.33;;
15679;SDS011;15488;48.114;11.532;2022-08-30T02:07:54;9.47;;;7.33;;
15679;SDS011;15488;48.114;11.532;2022-08-30T02:10:22;8.70;;;7.43;;
15679;SDS011;15488;48.114;11.532;2022-08-30T02:12:51;8.50;;;6.97;;
15679;SDS011;15488;48.114;11.532;2022-08-30T02:15:18;8.03;;;7.23;;
15679;SDS011;15488;48.114;11.532;2022-08-30T02:17:46;7.80;;;7.00;;
15679;SDS011;15488;48.114;11.532;2022-08-30T02:20:13;8.50;;;7.67;;
15679;SDS011;15488;48.114;11.532;2022-08-30T02:22:41;8.47;;;7.67;;
15679;SDS011;15488;48.114;11.532;2022-08-30T02:25:08;8.13;;;7.33;;
15679;SDS011;15488;48.114;11.532;2022-08-30T02:27:36;8.23;;;7.43;;
15679;SDS011;15488;48.114;11.532;2022-08-30T02:30:05;8.63;;;7.77;;
15679;SDS011;15488;48.114;11.532;2022-08-30T02:32:34;8.73;;;7.83;;
15679;SDS011;15488;48.114;11.532;2022-08-30T02:35:01;8.10;;;7.30;;
15679;SDS011;15488;48.114;11.532;2022-08-30T02:37:29;8.13;;;7.33;;
15679;SDS011;15488;48.114;11.532;2022-08-30T02:39:57;9.60;;;7.67;;
15679;SDS011;15488;48.114;11.532;2022-08-30T02:42:24;8.50;;;7.30;;
15679;SDS011;15488;48.114;11.532;2022-08-30T02:44:52;8.13;;;7.33;;
15679;SDS011;15488;48.114;11.532;2022-08-30T02:47:20;8.27;;;7.33;;
15679;SDS011;15488;48.114;11.532;2022-08-30T02:49:48;8.30;;;7.47;;
15679;SDS011;15488;48.114;11.532;2022-08-30T02:52:15;8.40;;;7.60;;
15679;SDS011;15488;48.114;11.532;2022-08-30T02:54:43;8.67;;;7.80;;
15679;SDS011;15488;48.114;11.532;2022-08-30T02:57:11;8.70;;;7.80;;
15679;SDS011;15488;48.114;11.532;2022-08-30T02:59:38;8.17;;;7.37;;
15679;SDS011;15488;48.114;11.532;2022-08-30T03:02:08;8.17;;;7.33;;
15679;SDS011;15488;48.114;11.532;2022-08-30T03:04:37;7.27;;;6.53;;
15679;SDS011;15488;48.114;11.532;2022-08-30T03:07:05;8.60;;;6.83;;
15679;SDS011;15488;48.114;11.532;2022-08-30T03:09:33;8.17;;;7.37;;
15679;SDS011;15488;48.114;11.532;2022-08-30T03:12:01;8.30;;;7.50;;
15679;SDS011;15488;48.114;11.532;2022-08-30T03:14:30;8.87;;;7.00;;
15679;SDS011;15488;48.114;11.532;2022-08-30T03:16:57;7.70;;;6.97;;
15679;SDS011;15488;48.114;11.532;2022-08-30T03:19:25;7.43;;;6.73;;
15679;SDS011;15488;48.114;11.532;2022-08-30T03:21:54;7.97;;;6.83;;
15679;SDS011;15488;48.114;11.532;2022-08-30T03:24:22;7.30;;;6.60;;
15679;SDS011;15488;48.114;11.532;2022-08-30T03:26:49;7.53;;;6.83;;
15679;SDS011;15488;48.114;11.532;2022-08-30T03:29:17;7.53;;;6.73;;
15679;SDS011;15488;48.114;11.532;2022-08-30T03:31:45;7.77;;;7.03;;
15679;SDS011;15488;48.114;11.532;2022-08-30T03:34:13;7.47;;;6.77;;
15679;SDS011;15488;48.114;11.532;2022-08-30T03:36:40;8.53;;;6.57;;
15679;SDS011;15488;48.114;11.532;2022-08-30T03:39:10;7.30;;;6.60;;
15679;SDS011;15488;48.114;11.532;2022-08-30T03:41:37;7.27;;;6.57;;
15679;SDS011;15488;48.114;11.532;2022-08-30T03:44:05;7.43;;;6.60;;
15679;SDS011;15488;48.114;11.532;2022-08-30T03:46:32;7.73;;;6.40;;
15679;SDS011;15488;48.114;11.532;2022-08-30T03:49:00;6.83;;;6.13;;
15679;SDS011;15488;48.114;11.532;2022-08-30T03:51:27;7.20;;;6.50;;
15679;SDS011;15488;48.114;11.532;2022-08-30T03:53:55;7.13;;;6.43;;
15679;SDS011;15488;48.114;11.532;2022-08-30T03:56:24;7.17;;;6.47;;
15679;SDS011;15488;48.114;11.532;2022-08-30T03:58:51;7.07;;;6.37;;
15679;SDS011;15488;48.114;11.532;2022-08-30T04:01:18;7.00;;;6.30;;
15679;SDS011;15488;48.114;11.532;2022-08-30T04:03:46;7.00;;;6.30;;
15679;SDS011;15488;48.114;11.532;2022-08-30T04:06:13;7.43;;;6.60;;
15679;SDS011;15488;48.114;11.532;2022-08-30T04:08:41;7.47;;;6.70;;
15679;SDS011;15488;48.114;11.532;2022-08-30T04:11:10;7.30;;;6.47;;
15679;SDS011;15488;48.114;11.532;2022-08-30T04:13:40;7.17;;;6.47;;
15679;SDS011;15488;48.114;11.532;2022-08-30T04:16:08;7.20;;;6.50;;
15679;SDS011;15488;48.114;11.532;2022-08-30T04:18:36;7.67;;;6.93;;
15679;SDS011;15488;48.114;11.532;2022-08-30T04:21:04;8.10;;;6.50;;
15679;SDS011;15488;48.114;11.532;2022-08-30T04:23:31;7.30;;;6.60;;
15679;SDS011;15488;48.114;11.532;2022-08-30T04:25:59;8.47;;;6.67;;
15679;SDS011;15488;48.114;11.532;2022-08-30T04:28:26;6.93;;;6.23;;
15679;SDS011;15488;48.114;11.532;2022-08-30T04:30:55;9.43;;;7.27;;
15679;SDS011;15488;48.114;11.532;2022-08-30T04:33:23;8.13;;;6.73;;
15679;SDS011;15488;48.114;11.532;2022-08-30T04:35:50;7.17;;;6.47;;
15679;SDS011;15488;48.114;11.532;2022-08-30T04:38:18;10.20;;;6.77;;
15679;SDS011;15488;48.114;11.532;2022-08-30T04:40:45;7.27;;;6.30;;
15679;SDS011;15488;48.114;11.532;2022-08-30T04:43:13;7.33;;;6.60;;
15679;SDS011;15488;48.114;11.532;2022-08-30T04:45:41;7.20;;;6.47;;
15679;SDS011;15488;48.114;11.532;2022-08-30T04:48:10;9.67;;;6.53;;
15679;SDS011;15488;48.114;11.532;2022-08-30T04:50:38;7.80;;;6.67;;
15679;SDS011;15488;48.114;11.532;2022-08-30T04:53:07;8.10;;;6.83;;
15679;SDS011;15488;48.114;11.532;2022-08-30T04:55:35;7.67;;;6.40;;
15679;SDS011;15488;48.114;11.532;2022-08-30T04:58:04;8.27;;;6.47;;
15679;SDS011;15488;48.114;11.532;2022-08-30T05:00:31;10.23;;;6.60;;
15679;SDS011;15488;48.114;11.532;2022-08-30T05:02:59;7.37;;;6.60;;
15679;SDS011;15488;48.114;11.532;2022-08-30T05:05:28;7.07;;;6.37;;
15679;SDS011;15488;48.114;11.532;2022-08-30T05:08:05;7.97;;;6.73;;
15679;SDS011;15488;48.114;11.532;2022-08-30T05:10:33;8.40;;;6.80;;
15679;SDS011;15488;48.114;11.532;2022-08-30T05:13:03;9.40;;;6.87;;
15679;SDS011;15488;48.114;11.532;2022-08-30T05:15:30;7.97;;;6.87;;
15679;SDS011;15488;48.114;11.532;2022-08-30T05:17:58;7.63;;;6.20;;
15679;SDS011;15488;48.114;11.532;2022-08-30T05:20:25;7.23;;;6.40;;
15679;SDS011;15488;48.114;11.532;2022-08-30T05:22:55;7.67;;;6.23;;
15679;SDS011;15488;48.114;11.532;2022-08-30T05:25:23;7.33;;;6.60;;
15679;SDS011;15488;48.114;11.532;2022-08-30T05:27:51;8.43;;;7.07;;
15679;SDS011;15488;48.114;11.532;2022-08-30T05:30:21;8.57;;;6.97;;
15679;SDS011;15488;48.114;11.532;2022-08-30T05:32:49;7.20;;;6.50;;
15679;SDS011;15488;48.114;11.532;2022-08-30T05:35:17;7.13;;;6.10;;
15679;SDS011;15488;48.114;11.532;2022-08-30T05:37:46;8.07;;;6.23;;
15679;SDS011;15488;48.114;11.532;2022-08-30T05:40:15;7.37;;;6.57;;
15679;SDS011;15488;48.114;11.532;2022-08-30T05:42:44;7.30;;;6.27;;
15679;SDS011;15488;48.114;11.532;2022-08-30T05:45:12;7.67;;;6.33;;
15679;SDS011;15488;48.114;11.532;2022-08-30T05:47:40;7.43;;;6.73;;
15679;SDS011;15488;48.114;11.532;2022-08-30T05:50:08;7.93;;;6.70;;
15679;SDS011;15488;48.114;11.532;2022-08-30T05:52:36;7.20;;;6.47;;
15679;SDS011;15488;48.114;11.532;2022-08-30T05:55:05;7.83;;;6.27;;
15679;SDS011;15488;48.114;11.532;2022-08-30T05:57:35;7.43;;;6.63;;
15679;SDS011;15488;48.114;11.532;2022-08-30T06:00:05;7.33;;;6.20;;
15679;SDS011;15488;48.114;11.532;2022-08-30T06:02:34;7.70;;;6.13;;
15679;SDS011;15488;48.114;11.532;2022-08-30T06:05:02;11.97;;;7.00;;
15679;SDS011;15488;48.114;11.532;2022-08-30T06:07:30;7.17;;;6.43;;
15679;SDS011;15488;48.114;11.532;2022-08-30T06:09:57;8.50;;;6.53;;
15679;SDS011;15488;48.114;11.532;2022-08-30T06:12:25;8.27;;;6.30;;
15679;SDS011;15488;48.114;11.532;2022-08-30T06:14:54;9.53;;;6.03;;
15679;SDS011;15488;48.114;11.532;2022-08-30T06:17:21;7.80;;;6.13;;
15679;SDS011;15488;48.114;11.532;2022-08-30T06:19:49;7.13;;;6.03;;
15679;SDS011;15488;48.114;11.532;2022-08-30T06:22:16;7.23;;;6.17;;
15679;SDS011;15488;48.114;11.532;2022-08-30T06:24:44;6.43;;;5.83;;
15679;SDS011;15488;48.114;11.532;2022-08-30T06:27:11;7.43;;;5.73;;
15679;SDS011;15488;48.114;11.532;2022-08-30T06:29:39;7.60;;;6.40;;
15679;SDS011;15488;48.114;11.532;2022-08-30T06:32:08;9.67;;;6.57;;
15679;SDS011;15488;48.114;11.532;2022-08-30T06:34:35;7.57;;;6.40;;
15679;SDS011;15488;48.114;11.532;2022-08-30T06:37:03;6.60;;;5.90;;
15679;SDS011;15488;48.114;11.532;2022-08-30T06:39:30;7.27;;;6.37;;
15679;SDS011;15488;48.114;11.532;2022-08-30T06:41:58;6.77;;;6.17;;
15679;SDS011;15488;48.114;11.532;2022-08-30T06:44:25;8.67;;;5.97;;
15679;SDS011;15488;48.114;11.532;2022-08-30T06:46:52;6.90;;;6.20;;
15679;SDS011;15488;48.114;11.532;2022-08-30T06:49:21;7.27;;;5.80;;
15679;SDS011;15488;48.114;11.532;2022-08-30T06:51:49;7.20;;;6.43;;
15679;SDS011;15488;48.114;11.532;2022-08-30T06:54:18;8.53;;;6.33;;
15679;SDS011;15488;48.114;11.532;2022-08-30T06:56:45;7.10;;;6.40;;
15679;SDS011;15488;48.114;11.532;2022-08-30T06:59:13;7.20;;;6.50;;
15679;SDS011;15488;48.114;11.532;2022-08-30T07:01:40;7.70;;;6.30;;
15679;SDS011;15488;48.114;11.532;2022-08-30T07:04:08;8.30;;;6.53;;
15679;SDS011;15488;48.114;11.532;2022-08-30T07:06:37;6.60;;;6.00;;
15679;SDS011;15488;48.114;11.532;2022-08-30T07:09:04;6.93;;;6.27;;
15679;SDS011;15488;48.114;11.532;2022-08-30T07:11:32;6.73;;;6.03;;
15679;SDS011;15488;48.114;11.532;2022-08-30T07:14:01;11.50;;;6.83;;
15679;SDS011;15488;48.114;11.532;2022-08-30T07:16:30;7.23;;;6.47;;
15679;SDS011;15488;48.114;11.532;2022-08-30T07:18:58;7.20;;;6.20;;
15679;SDS011;15488;48.114;11.532;2022-08-30T07:21:27;7.63;;;6.57;;
15679;SDS011;15488;48.114;11.532;2022-08-30T07:24:00;6.80;;;6.10;;
15679;SDS011;15488;48.114;11.532;2022-08-30T07:26:29;7.27;;;6.47;;
15679;SDS011;15488;48.114;11.532;2022-08-30T07:29:00;7.07;;;6.37;;
15679;SDS011;15488;48.114;11.532;2022-08-30T07:31:28;6.93;;;6.23;;
15679;SDS011;15488;48.114;11.532;2022-08-30T07:33:57;7.13;;;6.30;;
15679;SDS011;15488;48.114;11.532;2022-08-30T07:36:24;7.40;;;6.70;;
15679;SDS011;15488;48.114;11.532;2022-08-30T07:38:51;7.00;;;6.30;;
15679;SDS011;15488;48.114;11.532;2022-08-30T07:41:24;7.53;;;6.50;;
15679;SDS011;15488;48.114;11.532;2022-08-30T07:43:53;7.30;;;6.40;;
15679;SDS011;15488;48.114;11.532;2022-08-30T07:46:21;6.83;;;6.23;;
15679;SDS011;15488;48.114;11.532;2022-08-30T07:48:49;7.93;;;6.10;;
15679;SDS011;15488;48.114;11.532;2022-08-30T07:51:20;7.03;;;6.33;;
15679;SDS011;15488;48.114;11.532;2022-08-30T07:53:49;7.73;;;6.90;;
15679;SDS011;15488;48.114;11.532;2022-08-30T07:56:17;7.10;;;6.43;;
15679;SDS011;15488;48.114;11.532;2022-08-30T07:58:47;8.10;;;7.03;;
15679;SDS011;15488;48.114;11.532;2022-08-30T08:01:14;7.37;;;6.67;;
15679;SDS011;15488;48.114;11.532;2022-08-30T08:03:43;9.17;;;7.10;;
15679;SDS011;15488;48.114;11.532;2022-08-30T08:06:12;7.67;;;6.93;;
15679;SDS011;15488;48.114;11.532;2022-08-30T08:08:41;8.20;;;7.00;;
15679;SDS011;15488;48.114;11.532;2022-08-30T08:11:11;8.60;;;7.70;;
15679;SDS011;15488;48.114;11.532;2022-08-30T08:13:41;8.37;;;7.47;;
15679;SDS011;15488;48.114;11.532;2022-08-30T08:16:11;9.00;;;6.53;;
15679;SDS011;15488;48.114;11.532;2022-08-30T08:18:39;8.07;;;7.27;;
15679;SDS011;15488;48.114;11.532;2022-08-30T08:21:06;7.77;;;7.07;;
15679;SDS011;15488;48.114;11.532;2022-08-30T08:23:34;7.90;;;7.13;;
15679;SDS011;15488;48.114;11.532;2022-08-30T08:26:02;8.00;;;7.20;;
15679;SDS011;15488;48.114;11.532;2022-08-30T08:28:29;10.07;;;8.17;;
15679;SDS011;15488;48.114;11.532;2022-08-30T08:30:57;9.13;;;8.23;;
15679;SDS011;15488;48.114;11.532;2022-08-30T08:33:26;7.87;;;7.07;;
15679;SDS011;15488;48.114;11.532;2022-08-30T08:35:53;8.73;;;7.80;;
15679;SDS011;15488;48.114;11.532;2022-08-30T08:38:21;9.53;;;8.20;;
15679;SDS011;15488;48.114;11.532;2022-08-30T08:40:50;8.40;;;7.60;;
15679;SDS011;15488;48.114;11.532;2022-08-30T08:43:28;9.03;;;7.83;;
15679;SDS011;15488;48.114;11.532;2022-08-30T08:45:59;8.03;;;7.23;;
15679;SDS011;15488;48.114;11.532;2022-08-30T08:48:39;9.67;;;8.77;;
15679;SDS011;15488;48.114;11.532;2022-08-30T08:51:14;9.47;;;8.47;;
15679;SDS011;15488;48.114;11.532;2022-08-30T08:54:03;8.40;;;7.60;;
15679;SDS011;15488;48.114;11.532;2022-08-30T08:56:33;9.63;;;7.27;;
15679;SDS011;15488;48.114;11.532;2022-08-30T08:59:02;7.07;;;6.37;;
15679;SDS011;15488;48.114;11.532;2022-08-30T09:01:33;9.97;;;8.00;;
15679;SDS011;15488;48.114;11.532;2022-08-30T09:04:04;6.67;;;5.97;;
15679;SDS011;15488;48.114;11.532;2022-08-30T09:06:39;7.17;;;6.47;;
15679;SDS011;15488;48.114;11.532;2022-08-30T09:09:14;7.10;;;6.40;;
15679;SDS011;15488;48.114;11.532;2022-08-30T09:11:44;6.40;;;5.80;;
15679;SDS011;15488;48.114;11.532;2022-08-30T09:14:15;7.40;;;6.70;;
15679;SDS011;15488;48.114;11.532;2022-08-30T09:16:49;7.30;;;6.60;;
15679;SDS011;15488;48.114;11.532;2022-08-30T09:19:27;7.80;;;7.00;;
15679;SDS011;15488;48.114;11.532;2022-08-30T09:22:05;8.30;;;6.83;;
15679;SDS011;15488;48.114;11.532;2022-08-30T09:24:52;6.60;;;5.60;;
15679;SDS011;15488;48.114;11.532;2022-08-30T09:27:26;6.80;;;5.80;;
15679;SDS011;15488;48.114;11.532;2022-08-30T09:29:57;6.47;;;5.87;;
15679;SDS011;15488;48.114;11.532;2022-08-30T09:32:31;5.83;;;5.33;;
15679;SDS011;15488;48.114;11.532;2022-08-30T09:35:03;7.80;;;7.10;;
15679;SDS011;15488;48.114;11.532;2022-08-30T09:37:34;7.03;;;6.30;;
15679;SDS011;15488;48.114;11.532;2022-08-30T09:40:13;8.80;;;7.13;;
15679;SDS011;15488;48.114;11.532;2022-08-30T09:42:58;7.10;;;6.40;;
15679;SDS011;15488;48.114;11.532;2022-08-30T09:45:28;7.13;;;6.40;;
15679;SDS011;15488;48.114;11.532;2022-08-30T09:47:58;6.73;;;6.13;;
15679;SDS011;15488;48.114;11.532;2022-08-30T09:50:28;7.97;;;7.20;;
15679;SDS011;15488;48.114;11.532;2022-08-30T09:53:03;23.43;;;6.97;;
15679;SDS011;15488;48.114;11.532;2022-08-30T09:55:44;6.13;;;5.50;;
15679;SDS011;15488;48.114;11.532;2022-08-30T09:58:25;6.97;;;5.50;;
15679;SDS011;15488;48.114;11.532;2022-08-30T10:01:05;6.53;;;5.90;;
15679;SDS011;15488;48.114;11.532;2022-08-30T10:03:37;7.37;;;6.67;;
15679;SDS011;15488;48.114;11.532;2022-08-30T10:06:14;5.73;;;5.23;;
15679;SDS011;15488;48.114;11.532;2022-08-30T10:08:52;6.57;;;5.80;;
15679;SDS011;15488;48.114;11.532;2022-08-30T10:11:27;6.27;;;5.67;;
15679;SDS011;15488;48.114;11.532;2022-08-30T10:14:02;6.70;;;6.00;;
15679;SDS011;15488;48.114;11.532;2022-08-30T10:16:57;5.93;;;5.43;;
15679;SDS011;15488;48.114;11.532;2022-08-30T10:19:36;6.03;;;5.53;;
15679;SDS011;15488;48.114;11.532;2022-08-30T10:22:13;6.27;;;5.67;;
15679;SDS011;15488;48.114;11.532;2022-08-30T10:24:45;7.47;;;6.63;;
15679;SDS011;15488;48.114;11.532;2022-08-30T10:27:17;6.47;;;5.90;;
15679;SDS011;15488;48.114;11.532;2022-08-30T10:29:49;7.17;;;6.47;;
15679;SDS011;15488;48.114;11.532;2022-08-30T10:32:22;6.68;;;5.93;;
15679;SDS011;15488;48.114;11.532;2022-08-30T10:34:53;6.40;;;5.80;;
15679;SDS011;15488;48.114;11.532;2022-08-30T10:37:28;7.13;;;6.43;;
15679;SDS011;15488;48.114;11.532;2022-08-30T10:39:58;6.55;;;6.00;;
15679;SDS011;15488;48.114;11.532;2022-08-30T10:42:51;7.80;;;5.97;;
15679;SDS011;15488;48.114;11.532;2022-08-30T10:45:21;6.37;;;5.77;;
15679;SDS011;15488;48.114;11.532;2022-08-30T10:47:52;6.40;;;5.80;;
15679;SDS011;15488;48.114;11.532;2022-08-30T10:50:27;7.25;;;6.45;;
15679;SDS011;15488;48.114;11.532;2022-08-30T10:53:02;6.85;;;6.15;;
15679;SDS011;15488;48.114;11.532;2022-08-30T10:55:36;6.10;;;5.60;;
15679;SDS011;15488;48.114;11.532;2022-08-30T10:58:09;7.15;;;6.55;;
15679;SDS011;15488;48.114;11.532;2022-08-30T11:00:42;7.20;;;6.50;;
15679;SDS011;15488;48.114;11.532;2022-08-30T11:06:20;6.65;;;5.97;;
15679;SDS011;15488;48.114;11.532;2022-08-30T11:09:03;6.32;;;5.35;;
15679;SDS011;15488;48.114;11.532;2022-08-30T11:11:54;6.03;;;5.53;;
15679;SDS011;15488;48.114;11.532;2022-08-30T11:14:47;5.55;;;5.05;;
15679;SDS011;15488;48.114;11.532;2022-08-30T11:17:23;5.43;;;5.03;;
15679;SDS011;15488;48.114;11.532;2022-08-30T11:19:52;5.95;;;5.38;;
15679;SDS011;15488;48.114;11.532;2022-08-30T11:22:23;6.13;;;5.53;;
15679;SDS011;15488;48.114;11.532;2022-08-30T11:25:02;5.95;;;5.32;;
15679;SDS011;15488;48.114;11.532;2022-08-30T11:27:46;6.63;;;5.32;;
15679;SDS011;15488;48.114;11.532;2022-08-30T11:33:27;6.57;;;5.47;;
15679;SDS011;15488;48.114;11.532;2022-08-30T11:36:10;5.55;;;5.05;;
15679;SDS011;15488;48.114;11.532;2022-08-30T11:39:06;5.88;;;5.28;;
15679;SDS011;15488;48.114;11.532;2022-08-30T11:41:37;6.30;;;5.70;;
15679;SDS011;15488;48.114;11.532;2022-08-30T11:46:56;6.03;;;4.97;;
15679;SDS011;15488;48.114;11.532;2022-08-30T11:49:47;5.57;;;5.07;;
15679;SDS011;15488;48.114;11.532;2022-08-30T11:52:28;5.38;;;4.88;;
15679;SDS011;15488;48.114;11.532;2022-08-30T11:57:54;6.28;;;5.65;;
15679;SDS011;15488;48.114;11.532;2022-08-30T12:00:33;6.20;;;5.60;;
15679;SDS011;15488;48.114;11.532;2022-08-30T12:03:04;6.05;;;5.45;;
15679;SDS011;15488;48.114;11.532;2022-08-30T12:05:49;6.68;;;6.05;;
15679;SDS011;15488;48.114;11.532;2022-08-30T12:08:39;6.25;;;5.65;;
15679;SDS011;15488;48.114;11.532;2022-08-30T12:14:46;6.10;;;5.60;;
15679;SDS011;15488;48.114;11.532;2022-08-30T12:17:22;6.70;;;6.10;;
15679;SDS011;15488;48.114;11.532;2022-08-30T12:20:22;6.72;;;6.15;;
15679;SDS011;15488;48.114;11.532;2022-08-30T12:22:53;6.38;;;5.80;;
15679;SDS011;15488;48.114;11.532;2022-08-30T12:25:31;6.22;;;5.72;;
15679;SDS011;15488;48.114;11.532;2022-08-30T12:28:07;6.05;;;5.53;;
15679;SDS011;15488;48.114;11.532;2022-08-30T12:30:42;5.75;;;5.30;;
15679;SDS011;15488;48.114;11.532;2022-08-30T12:33:10;5.20;;;4.80;;
15679;SDS011;15488;48.114;11.532;2022-08-30T12:35:40;7.07;;;6.38;;
15679;SDS011;15488;48.114;11.532;2022-08-30T12:38:13;6.93;;;6.43;;
15679;SDS011;15488;48.114;11.532;2022-08-30T12:40:52;5.95;;;5.45;;
15679;SDS011;15488;48.114;11.532;2022-08-30T12:43:24;6.70;;;6.05;;
15679;SDS011;15488;48.114;11.532;2022-08-30T12:45:56;6.13;;;5.57;;
15679;SDS011;15488;48.114;11.532;2022-08-30T12:48:26;6.55;;;6.03;;
15679;SDS011;15488;48.114;11.532;2022-08-30T12:50:56;5.97;;;5.47;;
15679;SDS011;15488;48.114;11.532;2022-08-30T12:53:26;5.70;;;5.25;;
15679;SDS011;15488;48.114;11.532;2022-08-30T12:55:57;5.68;;;5.28;;
15679;SDS011;15488;48.114;11.532;2022-08-30T12:58:33;6.55;;;5.95;;
15679;SDS011;15488;48.114;11.532;2022-08-30T13:01:22;6.00;;;5.50;;
15679;SDS011;15488;48.114;11.532;2022-08-30T13:03:53;6.03;;;5.43;;
15679;SDS011;15488;48.114;11.532;2022-08-30T13:06:37;6.45;;;5.70;;
15679;SDS011;15488;48.114;11.532;2022-08-30T13:09:07;5.55;;;5.13;;
15679;SDS011;15488;48.114;11.532;2022-08-30T13:11:46;5.80;;;5.40;;
15679;SDS011;15488;48.114;11.532;2022-08-30T13:14:19;6.43;;;5.93;;
15679;SDS011;15488;48.114;11.532;2022-08-30T13:17:05;6.03;;;5.45;;
15679;SDS011;15488;48.114;11.532;2022-08-30T13:19:35;5.95;;;5.47;;
15679;SDS011;15488;48.114;11.532;2022-08-30T13:22:04;7.88;;;5.47;;
15679;SDS011;15488;48.114;11.532;2022-08-30T13:24:32;6.07;;;5.47;;
15679;SDS011;15488;48.114;11.532;2022-08-30T13:27:01;5.90;;;5.47;;
15679;SDS011;15488;48.114;11.532;2022-08-30T13:29:33;5.53;;;5.13;;
15679;SDS011;15488;48.114;11.532;2022-08-30T13:32:01;5.47;;;5.07;;
15679;SDS011;15488;48.114;11.532;2022-08-30T13:34:30;5.78;;;5.22;;
15679;SDS011;15488;48.114;11.532;2022-08-30T13:36:59;5.65;;;5.25;;
15679;SDS011;15488;48.114;11.532;2022-08-30T13:39:27;6.10;;;5.50;;
15679;SDS011;15488;48.114;11.532;2022-08-30T13:41:55;8.02;;;5.72;;
15679;SDS011;15488;48.114;11.532;2022-08-30T13:44:22;5.95;;;5.55;;
15679;SDS011;15488;48.114;11.532;2022-08-30T13:46:51;6.47;;;5.88;;
15679;SDS011;15488;48.114;11.532;2022-08-30T13:49:22;6.85;;;6.25;;
15679;SDS011;15488;48.114;11.532;2022-08-30T13:51:52;6.50;;;5.95;;
15679;SDS011;15488;48.114;11.532;2022-08-30T13:54:20;6.25;;;5.75;;
15679;SDS011;15488;48.114;11.532;2022-08-30T13:56:48;6.82;;;6.22;;
15679;SDS011;15488;48.114;11.532;2022-08-30T13:59:17;6.50;;;6.10;;
15679;SDS011;15488;48.114;11.532;2022-08-30T14:01:45;6.45;;;6.05;;
15679;SDS011;15488;48.114;11.532;2022-08-30T14:04:14;5.97;;;5.47;;
15679;SDS011;15488;48.114;11.532;2022-08-30T14:06:41;6.50;;;6.00;;
15679;SDS011;15488;48.114;11.532;2022-08-30T14:09:10;6.32;;;5.82;;
15679;SDS011;15488;48.114;11.532;2022-08-30T14:11:38;6.32;;;5.78;;
15679;SDS011;15488;48.114;11.532;2022-08-30T14:14:06;6.47;;;6.07;;
15679;SDS011;15488;48.114;11.532;2022-08-30T14:16:34;6.85;;;6.35;;
15679;SDS011;15488;48.114;11.532;2022-08-30T14:19:03;6.18;;;5.78;;
15679;SDS011;15488;48.114;11.532;2022-08-30T14:21:31;6.82;;;6.43;;
15679;SDS011;15488;48.114;11.532;2022-08-30T14:23:59;6.90;;;6.40;;
15679;SDS011;15488;48.114;11.532;2022-08-30T14:26:31;6.60;;;6.20;;
15679;SDS011;15488;48.114;11.532;2022-08-30T14:29:00;6.75;;;6.20;;
15679;SDS011;15488;48.114;11.532;2022-08-30T14:31:28;6.55;;;6.05;;
15679;SDS011;15488;48.114;11.532;2022-08-30T14:33:56;6.38;;;5.88;;
15679;SDS011;15488;48.114;11.532;2022-08-30T14:36:23;6.15;;;5.75;;
15679;SDS011;15488;48.114;11.532;2022-08-30T14:38:51;6.45;;;6.05;;
15679;SDS011;15488;48.114;11.532;2022-08-30T14:41:18;7.13;;;6.70;;
15679;SDS011;15488;48.114;11.532;2022-08-30T14:43:47;6.95;;;6.50;;
15679;SDS011;15488;48.114;11.532;2022-08-30T14:46:16;6.70;;;6.30;;
15679;SDS011;15488;48.114;11.532;2022-08-30T14:48:43;6.60;;;6.20;;
15679;SDS011;15488;48.114;11.532;2022-08-30T14:51:11;7.30;;;6.80;;
15679;SDS011;15488;48.114;11.532;2022-08-30T14:53:40;8.10;;;7.60;;
15679;SDS011;15488;48.114;11.532;2022-08-30T14:56:09;7.80;;;7.30;;
15679;SDS011;15488;48.114;11.532;2022-08-30T14:58:37;8.27;;;7.75;;
15679;SDS011;15488;48.114;11.532;2022-08-30T15:01:07;8.90;;;8.32;;
15679;SDS011;15488;48.114;11.532;2022-08-30T15:03:36;9.20;;;8.60;;
15679;SDS011;15488;48.114;11.532;2022-08-30T15:06:04;8.93;;;8.43;;
15679;SDS011;15488;48.114;11.532;2022-08-30T15:08:33;9.63;;;9.13;;